Almelund, Minnesota
Current Conditions -  °F | °C
As of 9:15 AM on Friday 31 Oct 2014 (Local Time) from KOEO Reporting Station
Broken Clouds Broken Clouds  
Wind Chill: 21°   Ceiling: 3100
Heat Index: 30°   Visibility: 10mi
Dew Point: 19°   Wind: 10mph
Humidity: 63%   Direction: 350°N
Pressure: 30.56"   Gusts: 18mph
Location:  45.49°N, 92.79°W
Report Text: KOEO 311415Z AUTO 35009G16KT 10SM BKN031 M01/M07 A3056 RMK AO2 T10131075
Loading
Personal Weather Stations






























Interactive Weather Map
Tropical Storm Tracking
New forecast layout! Learn more

10-Day Weather Forecast

Advertisements
Track Severe Weather on mobile